Главная страница
METAR-TAF:

METAR-TAF

Аэропорты :

Meierwik

Глюксбург, Германия

широта: 54-50N, долгота: 009-30E, высота над уровнем моря: 27 м

Текущие метеонаблюдения

Эта сводка был подготовлена 50 минут назад, в 05:20 UTC
Ветер 24 Узел от западно-северо-западный
Температура 8°C
Влажность 93%
Давление 997 hPa
Видимость 10 км и более
Рассеянная облачность на высоте 800 фута
небольшой морось

METAR: ETGG 070520Z 29024KT 9999 -DZ BKN008 08/07 Q0997 GRN

Время: 07:10 (06:10 UTC)


TAF: отсутствует

Метеонаблюдения и прогнозы для более 4000 аэропортов (сводки METAR и TAF).

Имеющиеся станции представлены на карте желтыми и красными точками.

Чтобы увидеть название станции, наведите на нее мышь.

Затем щелкните, чтобы увидеть метеонаблюдения и метеопрогнозы.

Управление картой: чтобы увеличить масштаб, щелкните зеленые кнопки с черным крестиком; чтобы уменьшить масштаб, щелкните зеленую кнопку с тире; для просмотра соседних карт щелкайте зеленые стрелки.


METAR-TAF: